createdAt,value
2018-12-07T00:02:01.700Z,18.03
2018-12-07T00:04:28.992Z,18.67
2018-12-07T00:06:55.976Z,17.10
2018-12-07T00:09:22.984Z,17.23
2018-12-07T00:11:49.916Z,17.30
2018-12-07T00:14:16.919Z,17.17
2018-12-07T00:16:43.882Z,17.40
2018-12-07T00:19:10.804Z,16.60
2018-12-07T00:21:37.808Z,19.00
2018-12-07T00:24:04.715Z,18.83
2018-12-07T00:26:31.636Z,15.50
2018-12-07T00:28:58.563Z,18.63
2018-12-07T00:31:25.509Z,19.07
2018-12-07T00:33:52.495Z,18.90
2018-12-07T00:36:19.441Z,19.53
2018-12-07T00:38:46.417Z,17.30
2018-12-07T00:41:13.358Z,17.57
2018-12-07T00:43:40.406Z,18.27
2018-12-07T00:46:07.367Z,19.87
2018-12-07T00:48:34.329Z,17.03
2018-12-07T00:51:01.272Z,18.00
2018-12-07T00:53:28.220Z,16.37
2018-12-07T00:55:55.220Z,18.30
2018-12-07T00:58:22.157Z,15.67
2018-12-07T01:00:49.118Z,18.20
2018-12-07T01:03:16.100Z,15.63
2018-12-07T01:05:43.054Z,22.17
2018-12-07T01:08:09.966Z,16.67
2018-12-07T01:10:36.934Z,18.57
2018-12-07T01:13:03.918Z,19.53
2018-12-07T01:15:30.880Z,18.60
2018-12-07T01:17:57.820Z,17.20
2018-12-07T01:20:24.770Z,17.13
2018-12-07T01:22:51.705Z,16.10
2018-12-07T01:25:18.636Z,17.70
2018-12-07T01:27:45.586Z,16.40
2018-12-07T01:30:12.527Z,18.20
2018-12-07T01:32:39.449Z,16.90
2018-12-07T01:35:06.385Z,17.27
2018-12-07T01:37:33.341Z,14.27
2018-12-07T01:40:00.322Z,13.50
2018-12-07T01:42:27.267Z,15.67
2018-12-07T01:44:54.236Z,14.60
2018-12-07T01:47:21.199Z,18.03
2018-12-07T01:49:48.142Z,14.97
2018-12-07T01:52:15.102Z,13.37
2018-12-07T01:54:42.036Z,16.53
2018-12-07T01:57:09.030Z,16.43
2018-12-07T01:59:35.978Z,15.97
2018-12-07T02:02:03.554Z,16.20
2018-12-07T02:04:30.516Z,16.80
2018-12-07T02:06:58.198Z,14.13
2018-12-07T02:09:25.170Z,14.90
2018-12-07T02:11:52.101Z,13.23
2018-12-07T02:14:19.041Z,15.93
2018-12-07T02:16:46.030Z,12.83
2018-12-07T02:19:13.009Z,15.13
2018-12-07T02:21:39.908Z,16.03
2018-12-07T02:24:06.849Z,14.33
2018-12-07T02:26:33.765Z,13.17
2018-12-07T02:29:00.688Z,14.90
2018-12-07T02:31:27.642Z,13.73
2018-12-07T02:33:54.599Z,15.53
2018-12-07T02:36:21.538Z,13.87
2018-12-07T02:38:50.581Z,23.43
2018-12-07T02:41:17.491Z,24.67
2018-12-07T02:43:44.943Z,20.53
2018-12-07T02:46:11.937Z,18.17
2018-12-07T02:48:38.862Z,20.03
2018-12-07T02:51:05.802Z,17.33
2018-12-07T02:53:32.711Z,16.40
2018-12-07T02:55:59.717Z,18.73
2018-12-07T02:58:26.724Z,17.67
2018-12-07T03:00:53.888Z,16.37
2018-12-07T03:03:20.816Z,17.13
2018-12-07T03:05:47.764Z,17.73
2018-12-07T03:08:15.393Z,15.80
2018-12-07T03:10:42.346Z,16.33
2018-12-07T03:13:09.290Z,14.60
2018-12-07T03:15:36.202Z,15.67
2018-12-07T03:18:03.138Z,16.80
2018-12-07T03:20:30.069Z,16.13
2018-12-07T03:22:57.045Z,20.80
2018-12-07T03:25:24.159Z,18.37
2018-12-07T03:27:51.073Z,17.60
2018-12-07T03:30:18.022Z,16.43
2018-12-07T03:32:44.964Z,16.60
2018-12-07T03:35:11.903Z,18.63
2018-12-07T03:37:38.849Z,17.60
2018-12-07T03:40:05.783Z,18.37
2018-12-07T03:42:32.745Z,21.67
2018-12-07T03:44:59.693Z,20.00
2018-12-07T03:47:26.619Z,21.83
2018-12-07T03:49:53.563Z,17.73
2018-12-07T03:52:20.488Z,17.40
2018-12-07T03:54:47.461Z,21.97
2018-12-07T03:57:14.416Z,23.60
2018-12-07T03:59:42.384Z,19.07
2018-12-07T04:02:11.317Z,21.10
2018-12-07T04:04:38.434Z,25.00
2018-12-07T04:07:05.757Z,20.83
2018-12-07T04:09:32.888Z,24.93
2018-12-07T04:12:00.010Z,22.93
2018-12-07T04:14:26.964Z,19.50
2018-12-07T04:16:53.895Z,23.97
2018-12-07T04:19:20.849Z,21.13
2018-12-07T04:21:47.830Z,21.13
2018-12-07T04:24:14.764Z,24.17
2018-12-07T04:26:41.735Z,23.50
2018-12-07T04:29:09.558Z,24.13
2018-12-07T04:31:36.541Z,21.73
2018-12-07T04:34:03.724Z,24.70
2018-12-07T04:36:30.806Z,26.50
2018-12-07T04:38:57.760Z,21.60
2018-12-07T04:41:24.785Z,23.00
2018-12-07T04:43:51.790Z,22.50
2018-12-07T04:46:18.729Z,24.13
2018-12-07T04:48:46.468Z,24.20
2018-12-07T04:51:14.521Z,20.57
2018-12-07T04:53:41.443Z,24.80
2018-12-07T04:56:08.482Z,23.13
2018-12-07T04:58:36.216Z,25.57
2018-12-07T05:01:03.194Z,26.07
2018-12-07T05:03:30.241Z,23.80
2018-12-07T05:05:57.306Z,22.63
2018-12-07T05:08:24.346Z,22.57
2018-12-07T05:10:51.426Z,21.50
2018-12-07T05:13:18.365Z,21.30
2018-12-07T05:15:45.316Z,21.03
2018-12-07T05:18:12.279Z,26.30
2018-12-07T05:20:39.234Z,26.33
2018-12-07T05:23:06.229Z,21.47
2018-12-07T05:25:33.239Z,23.33
2018-12-07T05:28:03.563Z,24.20
2018-12-07T05:30:30.560Z,24.90
2018-12-07T05:32:57.559Z,23.60
2018-12-07T05:35:24.593Z,20.73
2018-12-07T05:37:51.749Z,20.93
2018-12-07T05:40:18.762Z,20.90
2018-12-07T05:42:45.777Z,21.37
2018-12-07T05:45:12.726Z,19.73
2018-12-07T05:47:39.661Z,21.93
2018-12-07T05:50:06.795Z,20.93
2018-12-07T05:52:33.780Z,18.57
2018-12-07T05:55:00.752Z,21.00
2018-12-07T05:57:27.719Z,21.63
2018-12-07T05:59:54.668Z,25.40
2018-12-07T06:02:21.726Z,24.60
2018-12-07T06:04:48.730Z,20.87
2018-12-07T06:07:16.638Z,20.07
2018-12-07T06:09:43.678Z,20.00
2018-12-07T06:12:10.657Z,21.13
2018-12-07T06:14:37.674Z,23.17
2018-12-07T06:17:05.724Z,22.90
2018-12-07T06:19:32.966Z,19.20
2018-12-07T06:22:00.122Z,24.43
2018-12-07T06:24:27.066Z,23.90
2018-12-07T06:26:54.004Z,22.03
2018-12-07T06:29:20.945Z,25.17
2018-12-07T06:31:47.886Z,18.70
2018-12-07T06:34:14.921Z,17.13
2018-12-07T06:36:42.039Z,19.93
2018-12-07T06:39:10.178Z,20.13
2018-12-07T06:41:37.204Z,18.80
2018-12-07T06:44:04.231Z,18.50
2018-12-07T06:46:31.481Z,20.70
2018-12-07T06:49:09.959Z,21.10
2018-12-07T06:51:36.937Z,18.33
2018-12-07T06:54:03.983Z,19.50
2018-12-07T06:56:30.931Z,21.47
2018-12-07T06:58:57.964Z,20.50
2018-12-07T07:01:24.933Z,18.80
2018-12-07T07:03:51.892Z,20.07
2018-12-07T07:06:18.857Z,20.30
2018-12-07T07:08:45.829Z,20.10
2018-12-07T07:11:12.915Z,21.67
2018-12-07T07:13:39.945Z,17.70
2018-12-07T07:16:06.868Z,17.60
2018-12-07T07:18:33.846Z,18.73
2018-12-07T07:21:00.832Z,20.70
2018-12-07T07:23:27.812Z,18.93
2018-12-07T07:25:54.794Z,22.93
2018-12-07T07:28:21.758Z,26.33
2018-12-07T07:30:48.779Z,16.37
2018-12-07T07:33:15.753Z,21.47
2018-12-07T07:35:42.863Z,19.83
2018-12-07T07:38:09.794Z,18.43
2018-12-07T07:40:37.102Z,19.83
2018-12-07T07:43:04.064Z,19.17
2018-12-07T07:45:31.134Z,16.77
2018-12-07T07:47:58.086Z,17.97
2018-12-07T07:50:25.561Z,18.20
2018-12-07T07:52:52.821Z,18.73
2018-12-07T07:55:19.809Z,20.13
2018-12-07T07:57:47.487Z,18.23
2018-12-07T08:00:14.445Z,17.07
2018-12-07T08:02:42.390Z,16.60
2018-12-07T08:05:09.346Z,20.33
2018-12-07T08:07:36.387Z,20.40
2018-12-07T08:10:03.798Z,15.63
2018-12-07T08:12:31.667Z,21.10
2018-12-07T08:14:58.674Z,17.73
2018-12-07T08:17:25.645Z,17.60
2018-12-07T08:22:30.750Z,19.50
2018-12-07T08:24:57.822Z,16.33
2018-12-07T08:27:24.909Z,16.07
2018-12-07T08:29:51.935Z,17.03
2018-12-07T08:32:18.916Z,17.40
2018-12-07T08:34:46.778Z,17.00
2018-12-07T08:37:13.724Z,16.30
2018-12-07T08:39:40.896Z,11.70
2018-12-07T08:42:08.420Z,15.40
2018-12-07T08:44:35.673Z,18.33
2018-12-07T08:47:02.731Z,12.53
2018-12-07T08:49:35.381Z,13.33
2018-12-07T08:52:02.321Z,15.97
2018-12-07T08:54:29.327Z,16.00
2018-12-07T08:56:56.314Z,14.37
2018-12-07T08:59:23.931Z,13.17
2018-12-07T09:01:51.845Z,12.97
2018-12-07T09:04:18.809Z,14.63
2018-12-07T09:06:46.475Z,14.90
2018-12-07T09:09:13.444Z,19.33
2018-12-07T09:11:40.414Z,14.93
2018-12-07T09:14:07.416Z,20.90
2018-12-07T09:16:36.103Z,16.53
2018-12-07T09:19:03.070Z,17.73
2018-12-07T09:21:30.120Z,16.87
2018-12-07T09:23:57.742Z,14.63
2018-12-07T09:26:24.740Z,18.70
2018-12-07T09:28:51.750Z,18.50
2018-12-07T09:31:18.816Z,14.73
2018-12-07T09:33:45.762Z,14.57
2018-12-07T09:36:12.721Z,15.23
2018-12-07T09:38:39.750Z,18.17
2018-12-07T09:41:06.753Z,14.60
2018-12-07T09:43:34.513Z,14.83
2018-12-07T09:46:01.653Z,13.80
2018-12-07T09:48:28.589Z,11.23
2018-12-07T09:50:55.678Z,13.80
2018-12-07T09:53:22.647Z,12.77
2018-12-07T09:55:49.755Z,11.90
2018-12-07T09:58:16.719Z,10.47
2018-12-07T10:00:43.681Z,9.77
2018-12-07T10:03:11.299Z,10.37
2018-12-07T10:05:49.696Z,10.93
2018-12-07T10:08:19.072Z,9.53
2018-12-07T10:10:46.050Z,11.53
2018-12-07T10:13:12.999Z,7.93
2018-12-07T10:15:39.911Z,9.73
2018-12-07T10:18:06.899Z,10.07
2018-12-07T10:20:33.866Z,8.83
2018-12-07T10:23:01.550Z,8.80
2018-12-07T10:25:29.117Z,9.03
2018-12-07T10:27:56.139Z,12.43
2018-12-07T10:30:23.305Z,9.40
2018-12-07T10:32:50.271Z,8.53
2018-12-07T10:35:17.245Z,10.33
2018-12-07T10:37:44.267Z,7.57
2018-12-07T10:40:11.209Z,9.37
2018-12-07T10:42:38.174Z,8.77
2018-12-07T10:45:05.636Z,9.43
2018-12-07T10:47:33.168Z,8.70
2018-12-07T10:50:00.040Z,6.27
2018-12-07T10:52:27.046Z,8.20
2018-12-07T10:54:54.859Z,10.23
2018-12-07T10:57:22.150Z,12.73
2018-12-07T10:59:49.350Z,13.23
2018-12-07T11:02:22.033Z,8.70
2018-12-07T11:04:54.918Z,5.43
2018-12-07T11:07:27.681Z,8.07
2018-12-07T11:10:01.397Z,11.60
2018-12-07T11:12:34.849Z,8.33
2018-12-07T11:15:07.575Z,5.40
2018-12-07T11:17:40.281Z,5.30
2018-12-07T11:20:13.244Z,5.10
2018-12-07T11:22:45.863Z,5.93
2018-12-07T11:25:20.976Z,7.43
2018-12-07T11:27:56.584Z,10.58
2018-12-07T11:30:30.204Z,4.50
2018-12-07T11:33:04.376Z,4.80
2018-12-07T11:35:33.188Z,7.23
2018-12-07T11:38:00.889Z,5.07
2018-12-07T11:40:28.730Z,6.77
2018-12-07T11:42:55.184Z,6.70
2018-12-07T11:45:22.802Z,6.50
2018-12-07T11:47:49.700Z,4.80
2018-12-07T11:50:17.631Z,4.93
2018-12-07T11:52:44.594Z,6.07
2018-12-07T11:55:11.550Z,7.07
2018-12-07T11:57:38.574Z,4.50
2018-12-07T12:00:06.371Z,8.03
2018-12-07T12:02:33.551Z,7.80
2018-12-07T12:05:00.508Z,5.63
2018-12-07T12:07:27.470Z,5.80
2018-12-07T12:09:55.146Z,5.97
2018-12-07T12:12:22.102Z,6.40
2018-12-07T12:14:49.144Z,5.90
2018-12-07T12:17:16.311Z,10.30
2018-12-07T12:19:43.219Z,12.17
2018-12-07T12:22:10.211Z,9.43
2018-12-07T12:24:37.247Z,4.33
2018-12-07T12:27:04.278Z,5.60
2018-12-07T12:29:31.616Z,6.53
2018-12-07T12:31:59.531Z,3.63
2018-12-07T13:03:06.178Z,8.70
2018-12-07T13:05:34.033Z,8.83
2018-12-07T13:08:01.032Z,7.97
2018-12-07T13:10:28.700Z,11.30
2018-12-07T13:12:56.527Z,8.40
2018-12-07T13:15:24.229Z,6.70
2018-12-07T13:17:51.377Z,9.73
2018-12-07T13:20:18.423Z,9.63
2018-12-07T13:22:45.371Z,7.27
2018-12-07T13:25:12.823Z,11.43
2018-12-07T13:27:40.942Z,12.37
2018-12-07T13:30:08.537Z,8.00
2018-12-07T13:32:35.556Z,6.93
2018-12-07T13:35:02.649Z,6.57
2018-12-07T13:37:30.236Z,6.87
2018-12-07T13:39:57.233Z,6.00
2018-12-07T13:42:25.401Z,6.00
2018-12-07T13:44:52.606Z,8.17
2018-12-07T13:47:20.050Z,9.80
2018-12-07T13:49:46.980Z,5.77
2018-12-07T13:52:14.015Z,10.33
2018-12-07T13:54:41.293Z,8.20
2018-12-07T13:57:09.172Z,10.67
2018-12-07T13:59:37.322Z,7.80
2018-12-07T14:02:04.686Z,7.77
2018-12-07T14:04:32.181Z,8.40
2018-12-07T14:06:59.383Z,5.37
2018-12-07T14:09:26.856Z,8.50
2018-12-07T14:11:54.021Z,8.63
2018-12-07T14:14:21.222Z,9.93
2018-12-07T14:16:48.072Z,12.93
2018-12-07T14:19:15.971Z,12.30
2018-12-07T14:21:42.846Z,13.40
2018-12-07T14:24:09.889Z,11.93
2018-12-07T14:26:37.055Z,11.67
2018-12-07T14:29:04.093Z,15.43
2018-12-07T14:31:31.201Z,9.70
2018-12-07T14:33:58.620Z,10.93
2018-12-07T14:36:25.669Z,9.00
2018-12-07T14:38:55.288Z,14.70
2018-12-07T14:41:22.657Z,9.77
2018-12-07T14:43:49.682Z,11.67
2018-12-07T14:46:17.018Z,11.13
2018-12-07T14:48:43.995Z,9.77
2018-12-07T14:51:11.422Z,10.23
2018-12-07T14:53:38.255Z,10.87
2018-12-07T14:56:05.278Z,9.63
2018-12-07T14:58:32.466Z,11.10
2018-12-07T15:00:59.369Z,10.27
2018-12-07T15:03:29.672Z,15.43
2018-12-07T15:05:56.700Z,11.63
2018-12-07T15:08:24.114Z,12.17
2018-12-07T15:10:51.201Z,12.40
2018-12-07T15:13:18.445Z,9.47
2018-12-07T15:15:45.182Z,9.90
2018-12-07T15:18:12.647Z,8.50
2018-12-07T15:20:39.899Z,10.33
2018-12-07T15:23:06.850Z,12.50
2018-12-07T15:25:34.160Z,10.03
2018-12-07T15:28:01.250Z,10.07
2018-12-07T15:30:28.394Z,12.40
2018-12-07T15:32:55.482Z,9.83
2018-12-07T15:35:22.682Z,11.90
2018-12-07T15:37:49.710Z,8.87
2018-12-07T15:40:16.752Z,10.80
2018-12-07T15:42:43.629Z,13.37
2018-12-07T15:45:10.904Z,13.43
2018-12-07T15:47:37.942Z,10.77
2018-12-07T15:50:06.871Z,11.23
2018-12-07T15:52:33.984Z,10.77
2018-12-07T15:55:01.158Z,10.83
2018-12-07T15:57:28.679Z,11.40
2018-12-07T15:59:55.906Z,12.87
2018-12-07T16:02:22.702Z,11.17
2018-12-07T16:04:49.771Z,12.33
2018-12-07T16:07:21.673Z,13.40
2018-12-07T16:09:49.462Z,14.27
2018-12-07T16:12:16.396Z,12.13
2018-12-07T16:14:43.652Z,11.07
2018-12-07T16:17:10.509Z,11.13
2018-12-07T16:19:37.735Z,12.00
2018-12-07T16:22:04.578Z,10.87
2018-12-07T16:24:31.741Z,10.70
2018-12-07T16:26:58.674Z,9.23
2018-12-07T16:29:25.944Z,12.17
2018-12-07T16:31:54.569Z,15.27
2018-12-07T16:34:21.735Z,14.47
2018-12-07T16:36:48.611Z,10.93
2018-12-07T16:39:15.651Z,12.50
2018-12-07T16:41:42.931Z,18.57
2018-12-07T16:44:09.975Z,13.10
2018-12-07T16:46:37.002Z,13.33
2018-12-07T16:49:04.884Z,12.77
2018-12-07T16:51:32.305Z,17.40
2018-12-07T16:53:59.531Z,11.73
2018-12-07T16:56:27.324Z,19.47
2018-12-07T16:58:54.552Z,42.10
2018-12-07T17:01:22.340Z,12.20
2018-12-07T17:03:49.457Z,14.53
2018-12-07T17:06:17.451Z,15.67
2018-12-07T17:08:44.826Z,13.97
2018-12-07T17:11:12.731Z,12.77
2018-12-07T17:13:39.960Z,16.23
2018-12-07T17:16:07.000Z,20.17
2018-12-07T17:18:34.113Z,13.70
2018-12-07T17:21:01.338Z,15.17
2018-12-07T17:23:28.330Z,15.17
2018-12-07T17:25:56.289Z,13.70
2018-12-07T17:28:23.232Z,12.97
2018-12-07T17:30:51.162Z,13.93
2018-12-07T17:33:19.355Z,18.57
2018-12-07T17:35:48.888Z,21.17
2018-12-07T17:38:16.009Z,15.53
2018-12-07T17:40:44.047Z,48.28
2018-12-07T17:43:11.628Z,31.60
2018-12-07T17:45:38.852Z,32.67
2018-12-07T17:48:05.687Z,50.37
2018-12-07T17:50:32.964Z,28.30
2018-12-07T17:52:59.803Z,17.53
2018-12-07T17:55:26.876Z,15.53
2018-12-07T17:57:53.978Z,16.30
2018-12-07T18:00:22.159Z,14.50
2018-12-07T18:02:48.950Z,13.90
2018-12-07T18:05:16.070Z,14.60
2018-12-07T18:10:17.029Z,12.30
2018-12-07T18:12:44.260Z,17.77
2018-12-07T18:20:30.061Z,54.13
2018-12-07T18:22:57.134Z,14.03
2018-12-07T18:25:30.282Z,45.01
2018-12-07T18:27:57.332Z,14.67
2018-12-07T18:30:24.641Z,16.03
2018-12-07T18:32:51.757Z,12.67
2018-12-07T18:35:18.748Z,13.63
2018-12-07T18:37:46.015Z,11.63
2018-12-07T18:40:13.182Z,10.70
2018-12-07T18:42:40.395Z,11.67
2018-12-07T18:45:07.673Z,13.63
2018-12-07T18:47:34.644Z,13.07
2018-12-07T18:50:01.778Z,11.97
2018-12-07T18:52:28.819Z,11.47
2018-12-07T18:54:55.920Z,14.70
2018-12-07T18:57:23.006Z,13.93
2018-12-07T18:59:50.124Z,14.00
2018-12-07T19:02:24.840Z,16.43
2018-12-07T19:04:51.920Z,14.53
2018-12-07T19:07:23.971Z,19.87
2018-12-07T19:09:51.372Z,24.07
2018-12-07T19:12:18.668Z,11.80
2018-12-07T19:15:15.665Z,72.20
2018-12-07T19:23:56.909Z,138.40
2018-12-07T19:26:25.658Z,53.50
2018-12-07T19:29:19.956Z,18.40
2018-12-07T19:32:18.873Z,43.87
2018-12-07T19:34:46.051Z,25.87
2018-12-07T19:53:06.285Z,9.07
2018-12-07T19:55:33.561Z,11.07
2018-12-07T19:58:02.527Z,11.50
2018-12-07T20:00:31.435Z,11.90
2018-12-07T20:02:59.740Z,21.30
2018-12-07T20:05:27.666Z,13.77
2018-12-07T20:07:55.242Z,17.23
2018-12-07T20:10:24.069Z,16.47
2018-12-07T20:12:51.728Z,9.50
2018-12-07T20:15:19.711Z,12.60
2018-12-07T20:17:48.322Z,10.60
2018-12-07T20:20:15.701Z,12.10
2018-12-07T20:22:45.372Z,26.37
2018-12-07T20:25:13.124Z,18.27
2018-12-07T20:27:41.856Z,18.03
2018-12-07T20:30:10.695Z,29.47
2018-12-07T20:32:38.423Z,22.67
2018-12-07T20:35:06.923Z,21.67
2018-12-07T20:43:43.675Z,17.60
2018-12-07T20:46:14.960Z,14.87
2018-12-07T20:48:42.122Z,16.50
2018-12-07T20:51:09.465Z,12.00
2018-12-07T20:53:38.791Z,22.30
2018-12-07T20:56:07.151Z,20.70
2018-12-07T20:58:34.292Z,15.20
2018-12-07T21:01:01.751Z,10.10
2018-12-07T21:04:27.926Z,11.87
2018-12-07T21:08:04.512Z,12.63
2018-12-07T21:11:13.004Z,11.07
2018-12-07T21:17:53.045Z,8.00
2018-12-07T21:20:24.704Z,10.03
2018-12-07T21:22:51.859Z,7.57
2018-12-07T21:25:19.021Z,6.57
2018-12-07T21:27:46.111Z,9.57
2018-12-07T21:30:37.901Z,9.60
2018-12-07T21:33:05.129Z,7.77
2018-12-07T21:36:42.819Z,7.33
2018-12-07T21:39:17.542Z,8.40
2018-12-07T21:41:45.247Z,14.00
2018-12-07T21:44:12.444Z,11.93
2018-12-07T21:46:40.777Z,9.10
2018-12-07T21:49:08.269Z,7.73
2018-12-07T21:52:14.939Z,7.30
2018-12-07T21:54:42.345Z,21.57
2018-12-07T21:57:09.166Z,32.13
2018-12-07T21:59:35.907Z,53.40
2018-12-07T22:02:04.147Z,48.20
2018-12-07T22:04:31.931Z,38.47
2018-12-07T22:07:01.430Z,34.63
2018-12-07T22:09:29.303Z,37.70
2018-12-07T22:11:56.357Z,25.80
2018-12-07T22:14:23.383Z,20.57
2018-12-07T22:16:50.323Z,20.77
2018-12-07T22:19:17.391Z,18.17
2018-12-07T22:21:44.364Z,30.87
2018-12-07T22:24:11.399Z,28.03
2018-12-07T22:26:38.483Z,31.30
2018-12-07T22:34:00.385Z,17.40
2018-12-07T22:36:27.630Z,34.03
2018-12-07T22:38:54.370Z,30.57
2018-12-07T22:41:21.636Z,23.13
2018-12-07T22:43:48.624Z,22.07
2018-12-07T22:46:15.616Z,21.10
2018-12-07T22:48:42.654Z,15.77
2018-12-07T22:51:09.585Z,12.07
2018-12-07T22:53:36.549Z,8.43
2018-12-07T22:56:03.515Z,5.97
2018-12-07T22:58:30.458Z,7.27
2018-12-07T23:00:57.433Z,6.97
2018-12-07T23:03:24.530Z,4.33
2018-12-07T23:05:51.482Z,6.00
2018-12-07T23:08:18.407Z,3.57
2018-12-07T23:10:45.426Z,4.50
2018-12-07T23:13:12.380Z,5.23
2018-12-07T23:15:39.360Z,6.43
2018-12-07T23:18:06.369Z,4.53
2018-12-07T23:20:33.342Z,6.10
2018-12-07T23:23:00.279Z,2.90
2018-12-07T23:25:27.283Z,3.90
2018-12-07T23:27:54.232Z,4.70
2018-12-07T23:30:21.196Z,4.87
2018-12-07T23:32:48.172Z,7.57
2018-12-07T23:35:15.092Z,4.90
2018-12-07T23:37:42.014Z,4.07
2018-12-07T23:40:08.967Z,3.93
2018-12-07T23:42:35.988Z,6.87
2018-12-07T23:45:03.020Z,3.53
2018-12-07T23:47:29.967Z,7.70
2018-12-07T23:49:56.969Z,4.60
2018-12-07T23:52:24.669Z,3.20
2018-12-07T23:54:53.610Z,3.37
2018-12-07T23:57:20.533Z,2.23
2018-12-07T23:59:47.587Z,4.13
